createdAt,value
2022-11-09T00:01:03.882Z,23.52
2022-11-09T00:03:31.501Z,23.98
2022-11-09T00:06:00.696Z,23.55
2022-11-09T00:08:29.180Z,24.90
2022-11-09T00:11:03.831Z,24.52
2022-11-09T00:13:31.841Z,26.08
2022-11-09T00:16:00.326Z,24.42
2022-11-09T00:18:28.367Z,24.73
2022-11-09T00:20:57.147Z,25.02
2022-11-09T00:23:24.710Z,26.58
2022-11-09T00:25:52.569Z,25.83
2022-11-09T00:28:20.293Z,25.42
2022-11-09T00:30:48.599Z,25.33
2022-11-09T00:33:17.938Z,24.42
2022-11-09T00:35:46.058Z,24.30
2022-11-09T00:38:13.600Z,26.13
2022-11-09T00:40:41.469Z,25.45
2022-11-09T00:43:09.690Z,25.98
2022-11-09T00:45:37.509Z,25.33
2022-11-09T00:48:05.199Z,25.92
2022-11-09T00:50:33.704Z,26.27
2022-11-09T00:53:01.638Z,24.63
2022-11-09T00:55:29.756Z,24.20
2022-11-09T00:57:57.363Z,25.30
2022-11-09T01:00:25.349Z,26.23
2022-11-09T01:02:54.023Z,24.45
2022-11-09T01:05:21.902Z,24.70
2022-11-09T01:07:50.062Z,24.92
2022-11-09T01:10:17.918Z,25.58
2022-11-09T01:12:47.447Z,25.75
2022-11-09T01:15:16.244Z,26.25
2022-11-09T01:17:43.885Z,26.55
2022-11-09T01:20:12.081Z,26.15
2022-11-09T01:22:40.088Z,26.42
2022-11-09T01:25:08.491Z,25.52
2022-11-09T01:27:36.658Z,25.90
2022-11-09T01:30:07.165Z,27.90
2022-11-09T01:32:35.015Z,27.02
2022-11-09T01:35:03.864Z,28.15
2022-11-09T01:37:32.051Z,27.58
2022-11-09T01:40:00.103Z,28.15
2022-11-09T01:42:29.152Z,27.40
2022-11-09T01:45:18.533Z,27.38
2022-11-09T01:47:52.339Z,25.52
2022-11-09T01:50:31.062Z,27.85
2022-11-09T01:53:00.913Z,29.45
2022-11-09T01:55:28.935Z,28.67
2022-11-09T01:58:05.978Z,28.35
2022-11-09T02:00:37.462Z,28.40
2022-11-09T02:03:11.457Z,28.40
2022-11-09T02:05:41.865Z,28.40
2022-11-09T02:08:14.962Z,27.60
2022-11-09T02:11:08.983Z,28.73
2022-11-09T02:13:39.811Z,28.95
2022-11-09T02:16:11.413Z,28.17
2022-11-09T02:18:50.349Z,28.02
2022-11-09T02:21:18.141Z,28.70
2022-11-09T02:23:46.506Z,30.42
2022-11-09T02:26:32.423Z,30.27
2022-11-09T02:29:04.149Z,31.42
2022-11-09T02:31:36.643Z,28.30
2022-11-09T02:34:11.994Z,29.85
2022-11-09T02:36:39.996Z,29.35
2022-11-09T02:39:15.256Z,31.53
2022-11-09T02:42:10.287Z,31.00
2022-11-09T02:44:47.906Z,29.45
2022-11-09T02:47:15.756Z,29.80
2022-11-09T02:49:45.646Z,30.52
2022-11-09T02:52:13.400Z,30.58
2022-11-09T02:54:41.346Z,30.83
2022-11-09T02:57:09.476Z,29.65
2022-11-09T02:59:38.527Z,30.00
2022-11-09T03:02:07.380Z,28.20
2022-11-09T03:04:36.167Z,30.00
2022-11-09T03:07:04.388Z,30.73
2022-11-09T03:09:32.498Z,29.83
2022-11-09T03:12:19.996Z,30.42
2022-11-09T03:14:48.461Z,31.63
2022-11-09T03:17:17.600Z,30.55
2022-11-09T03:19:45.841Z,30.80
2022-11-09T03:22:14.475Z,31.00
2022-11-09T03:24:46.058Z,30.02
2022-11-09T03:27:14.660Z,30.02
2022-11-09T03:29:42.797Z,31.63
2022-11-09T03:32:11.700Z,30.40
2022-11-09T03:34:39.522Z,31.58
2022-11-09T03:37:07.132Z,31.80
2022-11-09T03:39:35.472Z,31.92
2022-11-09T03:42:03.097Z,31.40
2022-11-09T03:44:31.075Z,30.50
2022-11-09T03:46:58.807Z,32.00
2022-11-09T03:49:26.601Z,31.88
2022-11-09T03:51:54.307Z,30.88
2022-11-09T03:54:22.183Z,31.73
2022-11-09T03:56:49.827Z,32.28
2022-11-09T03:59:17.753Z,30.90
2022-11-09T04:01:45.438Z,31.35
2022-11-09T04:04:13.476Z,32.47
2022-11-09T04:06:41.271Z,31.90
2022-11-09T04:09:10.628Z,30.20
2022-11-09T04:11:38.314Z,32.22
2022-11-09T04:14:06.205Z,31.92
2022-11-09T04:16:33.929Z,31.50
2022-11-09T04:19:01.817Z,32.17
2022-11-09T04:21:29.609Z,31.35
2022-11-09T04:23:57.541Z,32.17
2022-11-09T04:26:25.080Z,32.40
2022-11-09T04:28:53.348Z,31.90
2022-11-09T04:31:24.269Z,30.23
2022-11-09T04:33:55.937Z,30.88
2022-11-09T04:36:23.838Z,31.42
2022-11-09T04:38:51.727Z,31.58
2022-11-09T04:41:19.386Z,31.38
2022-11-09T04:43:47.347Z,32.33
2022-11-09T04:46:14.910Z,30.17
2022-11-09T04:48:43.914Z,29.67
2022-11-09T04:51:11.887Z,31.33
2022-11-09T04:53:40.447Z,32.28
2022-11-09T04:56:09.001Z,31.27
2022-11-09T04:58:36.756Z,32.25
2022-11-09T05:01:13.255Z,33.17
2022-11-09T05:03:41.300Z,33.38
2022-11-09T05:06:28.453Z,30.10
2022-11-09T05:08:56.505Z,31.95
2022-11-09T05:11:24.556Z,31.80
2022-11-09T05:13:52.749Z,32.88
2022-11-09T05:16:21.423Z,33.88
2022-11-09T05:18:50.031Z,32.15
2022-11-09T05:21:18.212Z,34.42
2022-11-09T05:24:02.445Z,33.78
2022-11-09T05:26:31.804Z,34.63
2022-11-09T05:29:01.062Z,33.50
2022-11-09T05:31:29.392Z,34.35
2022-11-09T05:33:57.812Z,34.40
2022-11-09T05:36:27.795Z,32.80
2022-11-09T05:38:56.044Z,34.35
2022-11-09T05:41:24.053Z,32.38
2022-11-09T05:43:51.672Z,32.35
2022-11-09T05:46:20.033Z,33.20
2022-11-09T05:48:47.898Z,32.65
2022-11-09T05:51:16.334Z,32.83
2022-11-09T05:53:46.687Z,32.08
2022-11-09T05:56:15.583Z,32.60
2022-11-09T05:58:43.250Z,32.28
2022-11-09T06:01:13.837Z,34.15
2022-11-09T06:03:43.660Z,33.55
2022-11-09T06:06:13.754Z,32.85
2022-11-09T06:08:41.658Z,33.83
2022-11-09T06:11:11.645Z,32.63
2022-11-09T06:13:39.496Z,34.03
2022-11-09T06:16:09.491Z,34.78
2022-11-09T06:18:37.566Z,32.00
2022-11-09T06:21:06.614Z,33.67
2022-11-09T06:23:35.492Z,31.23
2022-11-09T06:26:06.844Z,32.67
2022-11-09T06:28:35.202Z,32.13
2022-11-09T06:31:06.059Z,34.15
2022-11-09T06:33:35.616Z,32.05
2022-11-09T06:36:04.229Z,31.35
2022-11-09T06:38:32.323Z,32.33
2022-11-09T06:41:01.169Z,32.30
2022-11-09T06:43:29.364Z,31.92
2022-11-09T06:45:57.510Z,29.90
2022-11-09T06:48:25.452Z,31.85
2022-11-09T06:50:53.466Z,29.30
2022-11-09T06:53:21.462Z,28.75
2022-11-09T06:55:51.030Z,29.65
2022-11-09T06:58:20.015Z,29.33
2022-11-09T07:00:47.997Z,28.52
2022-11-09T07:03:18.088Z,28.65
2022-11-09T07:05:47.254Z,27.63
2022-11-09T07:08:16.094Z,27.38
2022-11-09T07:10:44.548Z,28.48
2022-11-09T07:13:12.690Z,26.65
2022-11-09T07:15:40.850Z,27.52
2022-11-09T07:18:11.093Z,27.10
2022-11-09T07:20:39.086Z,27.40
2022-11-09T07:23:06.712Z,25.17
2022-11-09T07:25:35.070Z,25.00
2022-11-09T07:28:08.900Z,26.35
2022-11-09T07:33:20.660Z,25.08
2022-11-09T07:35:48.941Z,24.92
2022-11-09T07:38:17.263Z,24.88
2022-11-09T07:40:45.611Z,23.33
2022-11-09T07:43:13.628Z,26.10
2022-11-09T07:45:43.535Z,26.65
2022-11-09T07:48:12.166Z,24.85
2022-11-09T07:50:41.170Z,24.55
2022-11-09T07:53:11.280Z,25.73
2022-11-09T07:55:39.429Z,24.73
2022-11-09T07:58:11.216Z,23.65
2022-11-09T08:00:41.169Z,24.13
2022-11-09T08:03:09.326Z,24.40
2022-11-09T08:05:38.194Z,24.75
2022-11-09T08:08:08.987Z,22.45
2022-11-09T08:10:38.093Z,23.80
2022-11-09T08:13:12.090Z,23.38
2022-11-09T08:15:41.327Z,23.45
2022-11-09T08:18:12.762Z,24.25
2022-11-09T08:20:40.920Z,24.20
2022-11-09T08:23:11.402Z,24.33
2022-11-09T08:25:39.330Z,23.77
2022-11-09T08:28:11.953Z,23.40
2022-11-09T08:30:43.202Z,23.23
2022-11-09T08:33:11.356Z,24.20
2022-11-09T08:35:39.801Z,22.05
2022-11-09T08:38:07.491Z,23.95
2022-11-09T08:40:35.384Z,22.88
2022-11-09T08:43:11.579Z,23.92
2022-11-09T08:45:41.020Z,23.88
2022-11-09T08:48:10.511Z,22.27
2022-11-09T08:50:38.684Z,22.77
2022-11-09T08:53:07.826Z,22.90
2022-11-09T08:55:35.769Z,23.52
2022-11-09T08:58:05.263Z,22.38
2022-11-09T09:00:33.133Z,22.25
2022-11-09T09:03:04.969Z,22.50
2022-11-09T09:05:34.787Z,22.80
2022-11-09T09:08:03.470Z,22.08
2022-11-09T09:10:32.443Z,22.40
2022-11-09T09:13:01.210Z,22.05
2022-11-09T09:15:29.372Z,22.58
2022-11-09T09:17:59.333Z,23.63
2022-11-09T09:20:27.394Z,22.95
2022-11-09T09:22:57.687Z,23.80
2022-11-09T09:25:26.358Z,23.67
2022-11-09T09:27:54.110Z,22.30
2022-11-09T09:30:22.176Z,23.25
2022-11-09T09:32:49.807Z,22.33
2022-11-09T09:35:17.649Z,22.77
2022-11-09T09:37:45.305Z,22.38
2022-11-09T09:40:40.576Z,22.77
2022-11-09T09:43:17.667Z,23.98
2022-11-09T09:45:51.916Z,23.42
2022-11-09T09:48:44.734Z,23.05
2022-11-09T09:51:45.518Z,26.30
2022-11-09T09:54:21.536Z,23.08
2022-11-09T09:56:51.290Z,26.17
2022-11-09T09:59:37.359Z,23.80
2022-11-09T10:02:20.725Z,24.23
2022-11-09T10:04:48.714Z,22.52
2022-11-09T10:07:30.807Z,29.95
2022-11-09T10:10:18.626Z,23.15
2022-11-09T10:13:11.297Z,34.28
2022-11-09T10:15:49.461Z,23.27
2022-11-09T10:18:58.937Z,23.77
2022-11-09T10:21:29.288Z,24.52
2022-11-09T10:24:00.030Z,23.42
2022-11-09T10:26:51.945Z,23.83
2022-11-09T10:29:33.051Z,25.50
2022-11-09T10:32:15.981Z,23.48
2022-11-09T10:35:07.443Z,23.48
2022-11-09T10:37:46.905Z,23.88
2022-11-09T10:40:28.921Z,25.75
2022-11-09T10:43:15.895Z,24.13
2022-11-09T10:46:08.316Z,22.92
2022-11-09T10:48:55.903Z,23.15
2022-11-09T10:51:46.548Z,23.50
2022-11-09T10:54:38.114Z,24.27
2022-11-09T10:57:25.708Z,23.17
2022-11-09T11:00:20.087Z,23.80
2022-11-09T11:03:18.086Z,24.50
2022-11-09T11:06:14.987Z,24.15
2022-11-09T11:09:05.465Z,25.67
2022-11-09T11:12:13.745Z,23.15
2022-11-09T11:15:00.133Z,21.55
2022-11-09T11:17:46.618Z,22.48
2022-11-09T11:20:38.023Z,23.80
2022-11-09T11:23:26.655Z,26.77
2022-11-09T11:26:56.417Z,23.98
2022-11-09T11:29:48.793Z,34.83
2022-11-09T11:32:35.278Z,22.20
2022-11-09T11:35:53.508Z,21.45
2022-11-09T11:38:51.509Z,21.45
2022-11-09T11:41:40.353Z,30.38
2022-11-09T11:45:02.991Z,22.15
2022-11-09T11:48:26.220Z,20.38
2022-11-09T11:51:38.548Z,23.02
2022-11-09T11:54:39.213Z,20.65
2022-11-09T11:57:51.399Z,22.35
2022-11-09T12:01:02.574Z,22.70
2022-11-09T12:04:15.914Z,21.45
2022-11-09T12:07:13.867Z,20.52
2022-11-09T12:10:10.278Z,21.85
2022-11-09T12:13:15.088Z,48.00
2022-11-09T12:16:13.015Z,20.30
2022-11-09T12:19:13.798Z,21.65
2022-11-09T12:22:09.977Z,20.50
2022-11-09T12:24:56.237Z,20.30
2022-11-09T12:27:57.766Z,21.58
2022-11-09T12:31:06.924Z,21.70
2022-11-09T12:34:01.128Z,20.83
2022-11-09T12:36:58.952Z,20.80
2022-11-09T12:39:52.585Z,20.58
2022-11-09T12:43:15.597Z,21.52
2022-11-09T12:46:04.884Z,20.45
2022-11-09T12:48:51.249Z,20.67
2022-11-09T12:51:38.367Z,20.80
2022-11-09T12:54:26.022Z,21.77
2022-11-09T12:57:22.739Z,20.15
2022-11-09T13:00:29.588Z,21.25
2022-11-09T13:03:38.574Z,20.40
2022-11-09T13:06:31.067Z,20.17
2022-11-09T13:09:17.643Z,20.58
2022-11-09T13:12:35.245Z,19.95
2022-11-09T13:15:25.381Z,20.25
2022-11-09T13:18:48.665Z,19.10
2022-11-09T13:21:37.652Z,21.05
2022-11-09T13:24:35.572Z,20.45
2022-11-09T13:27:36.759Z,20.73
2022-11-09T13:30:25.655Z,20.90
2022-11-09T13:33:24.325Z,22.02
2022-11-09T13:36:10.675Z,20.17
2022-11-09T13:39:30.904Z,20.38
2022-11-09T13:42:36.996Z,20.77
2022-11-09T13:45:29.998Z,20.75
2022-11-09T13:48:40.289Z,20.95
2022-11-09T13:51:35.696Z,22.13
2022-11-09T13:54:29.751Z,20.48
2022-11-09T13:57:16.929Z,21.08
2022-11-09T14:00:07.078Z,21.27
2022-11-09T14:02:55.943Z,20.75
2022-11-09T14:05:43.507Z,21.02
2022-11-09T14:08:40.014Z,20.88
2022-11-09T14:11:49.140Z,22.38
2022-11-09T14:14:45.292Z,20.63
2022-11-09T14:17:58.553Z,20.98
2022-11-09T14:20:52.235Z,20.17
2022-11-09T14:23:39.000Z,21.08
2022-11-09T14:26:26.341Z,20.15
2022-11-09T14:29:22.008Z,21.13
2022-11-09T14:32:34.040Z,21.60
2022-11-09T14:35:20.108Z,20.95
2022-11-09T14:38:17.291Z,21.33
2022-11-09T14:41:04.590Z,21.10
2022-11-09T14:43:53.193Z,21.15
2022-11-09T14:46:39.414Z,22.92
2022-11-09T14:49:27.915Z,22.67
2022-11-09T14:52:18.267Z,23.25
2022-11-09T14:55:05.096Z,22.40
2022-11-09T14:57:54.439Z,22.40
2022-11-09T15:00:45.761Z,22.02
2022-11-09T15:03:32.576Z,22.15
2022-11-09T15:06:19.325Z,21.95
2022-11-09T15:09:15.094Z,22.70
2022-11-09T15:12:02.782Z,22.90
2022-11-09T15:14:56.286Z,23.00
2022-11-09T15:17:46.699Z,22.63
2022-11-09T15:20:34.663Z,22.60
2022-11-09T15:23:42.753Z,22.67
2022-11-09T15:26:34.676Z,22.08
2022-11-09T15:29:41.371Z,22.60
2022-11-09T15:32:32.696Z,21.85
2022-11-09T15:35:19.729Z,22.40
2022-11-09T15:38:06.382Z,21.45
2022-11-09T15:40:53.044Z,22.38
2022-11-09T15:43:40.191Z,20.77
2022-11-09T15:46:32.407Z,22.23
2022-11-09T15:49:28.914Z,22.30
2022-11-09T15:52:15.536Z,30.35
2022-11-09T15:55:01.744Z,29.27
2022-11-09T15:57:49.712Z,26.98
2022-11-09T16:00:36.194Z,25.05
2022-11-09T16:03:22.846Z,25.42
2022-11-09T16:06:13.704Z,23.58
2022-11-09T16:09:00.064Z,24.73
2022-11-09T16:11:49.845Z,27.15
2022-11-09T16:14:36.199Z,25.83
2022-11-09T16:17:22.639Z,28.17
2022-11-09T16:20:09.712Z,27.67
2022-11-09T16:22:55.832Z,26.20
2022-11-09T16:25:42.517Z,26.15
2022-11-09T16:28:28.837Z,24.42
2022-11-09T16:31:15.103Z,25.92
2022-11-09T16:34:01.560Z,26.33
2022-11-09T16:36:55.491Z,27.33
2022-11-09T16:39:43.232Z,27.52
2022-11-09T16:42:32.405Z,27.95
2022-11-09T16:45:19.418Z,29.73
2022-11-09T16:48:11.751Z,28.80
2022-11-09T16:50:57.842Z,29.38
2022-11-09T16:53:44.398Z,28.35
2022-11-09T16:56:32.834Z,28.90
2022-11-09T16:59:29.701Z,27.77
2022-11-09T17:02:16.302Z,27.73
2022-11-09T17:05:03.107Z,29.67
2022-11-09T17:07:49.632Z,28.20
2022-11-09T17:10:39.872Z,28.27
2022-11-09T17:13:26.491Z,27.38
2022-11-09T17:16:13.982Z,28.38
2022-11-09T17:19:00.635Z,29.45
2022-11-09T17:21:47.163Z,27.90
2022-11-09T17:24:33.849Z,29.45
2022-11-09T17:27:20.120Z,29.15
2022-11-09T17:30:07.997Z,28.98
2022-11-09T17:32:54.634Z,30.52
2022-11-09T17:35:41.414Z,29.75
2022-11-09T17:38:30.988Z,29.20
2022-11-09T17:41:20.839Z,31.88
2022-11-09T17:44:07.201Z,30.17
2022-11-09T17:46:53.717Z,30.92
2022-11-09T17:49:39.902Z,30.63
2022-11-09T17:52:26.228Z,30.70
2022-11-09T17:55:12.338Z,31.58
2022-11-09T17:57:58.492Z,31.38
2022-11-09T18:00:45.299Z,34.08
2022-11-09T18:03:37.267Z,32.35
2022-11-09T18:06:24.931Z,32.83
2022-11-09T18:09:39.512Z,33.58
2022-11-09T18:12:17.734Z,32.58
2022-11-09T18:15:04.709Z,32.55
2022-11-09T18:17:51.154Z,31.65
2022-11-09T18:20:40.828Z,31.02
2022-11-09T18:23:27.591Z,31.50
2022-11-09T18:26:14.845Z,29.95
2022-11-09T18:29:01.050Z,29.73
2022-11-09T18:31:47.864Z,31.23
2022-11-09T18:34:34.161Z,29.25
2022-11-09T18:37:21.092Z,30.45
2022-11-09T18:40:08.224Z,29.05
2022-11-09T18:42:55.147Z,30.80
2022-11-09T18:45:41.410Z,30.17
2022-11-09T18:48:29.156Z,29.58
2022-11-09T18:51:15.193Z,31.17
2022-11-09T18:54:01.517Z,31.52
2022-11-09T18:56:49.047Z,31.45
2022-11-09T18:59:37.847Z,29.40
2022-11-09T19:02:24.058Z,29.88
2022-11-09T19:05:11.221Z,30.38
2022-11-09T19:07:57.853Z,30.63
2022-11-09T19:10:44.511Z,31.60
2022-11-09T19:13:30.949Z,31.48
2022-11-09T19:16:17.920Z,30.67
2022-11-09T19:19:04.249Z,31.83
2022-11-09T19:21:56.693Z,30.77
2022-11-09T19:24:43.239Z,31.05
2022-11-09T19:27:30.410Z,31.17
2022-11-09T19:30:16.814Z,31.13
2022-11-09T19:33:03.721Z,32.60
2022-11-09T19:36:23.158Z,32.45
2022-11-09T19:39:01.310Z,33.20
2022-11-09T19:41:48.520Z,33.35
2022-11-09T19:44:35.137Z,34.30
2022-11-09T19:47:21.445Z,33.47
2022-11-09T19:50:08.530Z,34.33
2022-11-09T19:52:55.393Z,34.47
2022-11-09T19:55:42.358Z,34.53
2022-11-09T19:58:28.786Z,34.45
2022-11-09T20:01:15.114Z,35.63
2022-11-09T20:04:05.153Z,35.78
2022-11-09T20:06:54.407Z,36.40
2022-11-09T20:09:40.827Z,37.13
2022-11-09T20:12:46.181Z,36.63
2022-11-09T20:15:32.889Z,35.70
2022-11-09T20:18:23.646Z,36.80
2022-11-09T20:21:10.229Z,36.40
2022-11-09T20:23:56.891Z,36.55
2022-11-09T20:26:44.111Z,36.80
2022-11-09T20:29:30.524Z,35.00
2022-11-09T20:32:21.557Z,36.13
2022-11-09T20:35:08.814Z,35.97
2022-11-09T20:37:54.962Z,36.63
2022-11-09T20:40:41.432Z,37.30
2022-11-09T20:43:29.152Z,36.30
2022-11-09T20:46:19.052Z,36.13
2022-11-09T20:49:05.567Z,37.47
2022-11-09T20:51:52.512Z,35.75
2022-11-09T20:54:39.072Z,36.13
2022-11-09T20:57:25.287Z,37.22
2022-11-09T21:00:12.572Z,36.38
2022-11-09T21:02:59.809Z,37.35
2022-11-09T21:05:50.548Z,37.70
2022-11-09T21:08:39.629Z,38.20
2022-11-09T21:11:28.695Z,38.65
2022-11-09T21:14:15.209Z,36.90
2022-11-09T21:17:01.441Z,38.00
2022-11-09T21:19:47.728Z,36.40
2022-11-09T21:22:52.763Z,37.50
2022-11-09T21:25:59.734Z,37.30
2022-11-09T21:29:04.763Z,36.97
2022-11-09T21:31:51.255Z,35.25
2022-11-09T21:34:37.788Z,36.60
2022-11-09T21:37:24.349Z,36.53
2022-11-09T21:40:11.015Z,37.10
2022-11-09T21:42:57.335Z,37.72
2022-11-09T21:45:48.541Z,37.03
2022-11-09T21:48:35.430Z,36.72
2022-11-09T21:51:21.624Z,37.42
2022-11-09T21:54:09.453Z,37.38
2022-11-09T21:56:55.676Z,36.30
2022-11-09T21:59:42.031Z,36.97
2022-11-09T22:02:28.202Z,37.22
2022-11-09T22:05:17.708Z,36.70
2022-11-09T22:08:07.996Z,37.47
2022-11-09T22:11:03.074Z,38.45
2022-11-09T22:14:08.285Z,37.35
2022-11-09T22:16:54.782Z,36.42
2022-11-09T22:19:59.701Z,38.88
2022-11-09T22:22:46.353Z,37.28
2022-11-09T22:25:32.961Z,37.03
2022-11-09T22:28:19.503Z,38.28
2022-11-09T22:31:08.110Z,39.03
2022-11-09T22:33:54.792Z,38.67
2022-11-09T22:36:41.009Z,38.33
2022-11-09T22:39:27.455Z,38.17
2022-11-09T22:42:13.815Z,37.33
2022-11-09T22:44:59.962Z,37.80
2022-11-09T22:47:46.375Z,38.17
2022-11-09T22:50:32.851Z,39.10
2022-11-09T22:53:19.341Z,38.95
2022-11-09T22:56:06.426Z,38.28
2022-11-09T22:58:52.972Z,38.15
2022-11-09T23:01:39.632Z,39.40
2022-11-09T23:04:26.001Z,38.85
2022-11-09T23:07:12.687Z,39.05
2022-11-09T23:09:58.751Z,39.47
2022-11-09T23:12:45.013Z,39.45
2022-11-09T23:15:31.658Z,39.38
2022-11-09T23:18:36.632Z,38.72
2022-11-09T23:21:24.463Z,40.72
2022-11-09T23:24:30.989Z,39.28
2022-11-09T23:27:17.482Z,40.42
2022-11-09T23:30:04.623Z,39.28
2022-11-09T23:32:50.769Z,40.42
2022-11-09T23:35:37.495Z,38.80
2022-11-09T23:38:24.504Z,38.58
2022-11-09T23:41:12.213Z,40.80
2022-11-09T23:43:58.679Z,39.78
2022-11-09T23:46:45.154Z,39.70
2022-11-09T23:49:31.370Z,38.90
2022-11-09T23:52:17.762Z,39.83
2022-11-09T23:55:04.285Z,40.05
2022-11-09T23:57:50.621Z,38.60
